createdAt,value
2022-09-23T00:03:06.074Z,80.48
2022-09-23T00:06:17.034Z,80.32
2022-09-23T00:09:25.413Z,80.24
2022-09-23T00:12:33.621Z,80.33
2022-09-23T00:15:41.751Z,80.23
2022-09-23T00:18:51.549Z,80.33
2022-09-23T00:21:59.719Z,80.07
2022-09-23T00:25:11.393Z,80.39
2022-09-23T00:28:19.600Z,79.89
2022-09-23T00:31:28.789Z,80.16
2022-09-23T00:34:38.510Z,80.35
2022-09-23T00:37:46.666Z,79.92
2022-09-23T00:40:55.142Z,79.70
2022-09-23T00:44:42.770Z,80.06
2022-09-23T00:47:58.270Z,80.63
2022-09-23T00:51:12.303Z,80.23
2022-09-23T00:54:22.253Z,80.83
2022-09-23T00:57:31.241Z,80.69
2022-09-23T01:00:40.349Z,80.47
2022-09-23T01:03:50.162Z,80.21
2022-09-23T01:06:59.744Z,81.07
2022-09-23T01:10:11.862Z,80.31
2022-09-23T01:13:32.084Z,80.49
2022-09-23T01:16:49.127Z,80.81
2022-09-23T01:20:29.429Z,80.47
2022-09-23T01:24:27.508Z,80.62
2022-09-23T01:28:00.652Z,80.40
2022-09-23T01:31:20.414Z,79.56
2022-09-23T01:34:37.685Z,79.75
2022-09-23T01:37:52.497Z,80.33
2022-09-23T01:41:12.512Z,79.97
2022-09-23T01:44:30.010Z,79.77
2022-09-23T01:47:48.378Z,79.75
2022-09-23T01:51:03.434Z,80.87
2022-09-23T01:54:18.687Z,80.87
2022-09-23T01:57:36.288Z,80.39
2022-09-23T02:00:55.159Z,80.44
2022-09-23T02:04:13.113Z,80.05
2022-09-23T02:07:29.290Z,79.67
2022-09-23T02:10:46.003Z,80.11
2022-09-23T02:13:59.895Z,80.47
2022-09-23T02:17:14.803Z,80.84
2022-09-23T02:20:30.617Z,80.46
2022-09-23T02:23:45.129Z,80.26
2022-09-23T02:26:59.696Z,80.13
2022-09-23T02:30:14.015Z,80.49
2022-09-23T02:33:32.777Z,80.11
2022-09-23T02:36:54.217Z,80.10
2022-09-23T02:40:16.964Z,80.24
2022-09-23T02:43:36.446Z,80.50
2022-09-23T02:46:45.917Z,80.27
2022-09-23T02:49:56.332Z,81.09
2022-09-23T02:53:07.447Z,79.95
2022-09-23T02:56:19.624Z,80.11
2022-09-23T02:59:28.229Z,80.84
2022-09-23T03:03:10.534Z,80.26
2022-09-23T03:06:31.520Z,80.18
2022-09-23T03:09:54.012Z,79.84
2022-09-23T03:13:17.027Z,79.95
2022-09-23T03:16:39.338Z,80.33
2022-09-23T03:19:56.307Z,79.58
2022-09-23T03:23:11.671Z,80.18
2022-09-23T03:26:28.415Z,80.40
2022-09-23T03:29:37.321Z,80.16
2022-09-23T03:32:47.814Z,80.46
2022-09-23T03:36:22.579Z,80.85
2022-09-23T03:39:41.190Z,80.22
2022-09-23T03:42:51.240Z,80.67
2022-09-23T03:46:01.509Z,80.44
2022-09-23T03:49:17.721Z,80.27
2022-09-23T03:52:27.451Z,81.01
2022-09-23T03:55:36.087Z,81.18
2022-09-23T03:58:46.457Z,81.77
2022-09-23T04:01:55.696Z,81.04
2022-09-23T04:05:04.041Z,81.07
2022-09-23T04:08:12.193Z,80.99
2022-09-23T04:11:20.295Z,80.12
2022-09-23T04:14:29.866Z,80.26
2022-09-23T04:17:37.962Z,80.35
2022-09-23T04:20:46.337Z,80.83
2022-09-23T04:23:54.416Z,80.35
2022-09-23T04:27:02.600Z,81.06
2022-09-23T04:30:14.114Z,81.81
2022-09-23T04:33:22.219Z,80.89
2022-09-23T04:36:30.419Z,81.44
2022-09-23T04:39:38.624Z,81.18
2022-09-23T04:42:46.816Z,81.01
2022-09-23T04:46:04.892Z,81.31
2022-09-23T04:49:12.991Z,80.69
2022-09-23T04:52:21.069Z,81.11
2022-09-23T04:55:29.320Z,81.31
2022-09-23T04:58:37.717Z,80.92
2022-09-23T05:01:47.256Z,81.84
2022-09-23T05:04:55.757Z,81.28
2022-09-23T05:08:03.905Z,81.49
2022-09-23T05:11:11.975Z,80.56
2022-09-23T05:14:20.334Z,81.04
2022-09-23T05:17:31.215Z,80.93
2022-09-23T05:20:39.396Z,80.84
2022-09-23T05:23:50.476Z,80.09
2022-09-23T05:26:58.578Z,80.43
2022-09-23T05:30:08.687Z,80.44
2022-09-23T05:33:18.118Z,81.61
2022-09-23T05:36:29.820Z,80.26
2022-09-23T05:39:40.197Z,80.55
2022-09-23T05:42:48.286Z,80.15
2022-09-23T05:46:07.805Z,80.63
2022-09-23T05:49:17.743Z,80.51
2022-09-23T05:52:25.972Z,80.25
2022-09-23T05:55:34.109Z,80.59
2022-09-23T05:58:42.328Z,80.71
2022-09-23T06:01:54.431Z,80.91
2022-09-23T06:05:06.818Z,80.23
2022-09-23T06:08:15.670Z,81.88
2022-09-23T06:11:24.022Z,79.94
2022-09-23T06:14:32.160Z,80.74
2022-09-23T06:17:40.231Z,81.31
2022-09-23T06:20:49.652Z,80.11
2022-09-23T06:24:00.222Z,80.42
2022-09-23T06:27:08.299Z,81.04
2022-09-23T06:30:17.065Z,81.55
2022-09-23T06:33:34.350Z,80.93
2022-09-23T06:36:46.817Z,80.56
2022-09-23T06:39:55.075Z,80.65
2022-09-23T06:43:03.424Z,79.47
2022-09-23T06:46:17.237Z,78.64
2022-09-23T06:49:25.437Z,75.47
2022-09-23T06:52:35.109Z,73.64
2022-09-23T06:55:44.154Z,70.77
2022-09-23T06:58:53.466Z,69.24
2022-09-23T07:02:01.772Z,68.63
2022-09-23T07:05:10.461Z,68.17
2022-09-23T07:08:19.915Z,67.07
2022-09-23T07:11:28.024Z,64.55
2022-09-23T07:14:36.161Z,63.62
2022-09-23T07:17:44.289Z,65.04
2022-09-23T07:20:52.711Z,67.42
2022-09-23T07:24:02.737Z,67.88
2022-09-23T07:27:10.971Z,68.61
2022-09-23T07:30:25.026Z,68.72
2022-09-23T07:33:34.533Z,68.38
2022-09-23T07:36:42.756Z,68.49
2022-09-23T07:39:52.314Z,68.97
2022-09-23T07:43:00.587Z,68.56
2022-09-23T07:46:14.217Z,68.67
2022-09-23T07:49:22.516Z,67.00
2022-09-23T07:52:31.061Z,66.79
2022-09-23T07:55:40.755Z,65.74
2022-09-23T07:59:00.135Z,66.79
2022-09-23T08:02:15.752Z,65.83
2022-09-23T08:05:24.057Z,65.14
2022-09-23T08:08:32.609Z,63.57
2022-09-23T08:11:42.921Z,64.56
2022-09-23T08:14:51.028Z,65.00
2022-09-23T08:18:01.226Z,63.25
2022-09-23T08:21:09.683Z,63.59
2022-09-23T08:24:21.234Z,62.38
2022-09-23T08:27:32.251Z,60.81
2022-09-23T08:30:40.730Z,61.69
2022-09-23T08:33:48.914Z,61.39
2022-09-23T08:36:57.935Z,61.04
2022-09-23T08:40:08.049Z,60.76
2022-09-23T08:43:27.360Z,61.02
2022-09-23T08:46:46.448Z,60.34
2022-09-23T08:50:05.348Z,61.25
2022-09-23T08:53:24.894Z,60.21
2022-09-23T08:56:35.389Z,59.09
2022-09-23T08:59:46.264Z,58.15
2022-09-23T09:02:57.081Z,57.95
2022-09-23T09:06:05.728Z,57.74
2022-09-23T09:09:25.035Z,57.34
2022-09-23T09:12:43.415Z,57.56
2022-09-23T09:16:15.352Z,56.33
2022-09-23T09:19:56.284Z,56.94
2022-09-23T09:23:21.810Z,55.69
2022-09-23T09:26:34.839Z,56.76
2022-09-23T09:29:50.002Z,54.36
2022-09-23T09:33:04.582Z,55.89
2022-09-23T09:36:24.716Z,55.46
2022-09-23T09:39:34.306Z,57.15
2022-09-23T09:42:47.967Z,55.85
2022-09-23T09:46:17.099Z,56.04
2022-09-23T09:49:40.510Z,55.16
2022-09-23T09:52:49.301Z,54.72
2022-09-23T09:56:05.335Z,56.14
2022-09-23T09:59:23.510Z,55.35
2022-09-23T10:02:36.858Z,54.44
2022-09-23T10:05:54.390Z,54.27
2022-09-23T10:09:19.202Z,51.73
2022-09-23T10:12:27.961Z,52.72
2022-09-23T10:15:45.712Z,52.62
2022-09-23T10:18:57.081Z,51.44
2022-09-23T10:22:26.265Z,50.11
2022-09-23T10:25:37.664Z,49.84
2022-09-23T10:28:52.305Z,50.82
2022-09-23T10:32:28.111Z,50.34
2022-09-23T10:35:36.502Z,52.48
2022-09-23T10:38:50.294Z,52.03
2022-09-23T10:42:27.739Z,48.90
2022-09-23T10:45:59.154Z,48.35
2022-09-23T10:49:59.344Z,47.33
2022-09-23T10:53:20.694Z,48.32
2022-09-23T10:56:40.725Z,48.45
2022-09-23T11:00:03.804Z,46.95
2022-09-23T11:04:26.871Z,48.57
2022-09-23T11:07:41.375Z,49.08
2022-09-23T11:11:11.603Z,50.80
2022-09-23T11:14:42.545Z,48.56
2022-09-23T11:18:29.167Z,48.43
2022-09-23T11:22:02.172Z,49.29
2022-09-23T11:25:30.289Z,46.72
2022-09-23T11:29:07.392Z,48.38
2022-09-23T11:32:48.713Z,47.07
2022-09-23T11:36:05.826Z,47.81
2022-09-23T11:39:21.830Z,47.29
2022-09-23T11:42:36.482Z,44.73
2022-09-23T11:45:58.581Z,45.35
2022-09-23T11:49:18.235Z,44.88
2022-09-23T11:52:35.961Z,45.56
2022-09-23T11:55:57.234Z,46.73
2022-09-23T11:59:35.302Z,47.42
2022-09-23T12:03:05.934Z,46.64
2022-09-23T12:06:23.099Z,47.05
2022-09-23T12:09:57.678Z,46.91
2022-09-23T12:13:18.006Z,46.85
2022-09-23T12:16:59.113Z,45.90
2022-09-23T12:20:43.233Z,46.67
2022-09-23T12:24:19.184Z,47.20
2022-09-23T12:27:41.916Z,48.16
2022-09-23T12:30:54.179Z,46.93
2022-09-23T12:34:20.827Z,48.37
2022-09-23T12:37:36.021Z,47.63
2022-09-23T12:40:45.595Z,48.04
2022-09-23T12:43:57.896Z,46.38
2022-09-23T12:47:38.946Z,46.65
2022-09-23T12:50:50.961Z,47.01
2022-09-23T12:54:24.831Z,46.61
2022-09-23T12:57:44.405Z,46.46
2022-09-23T13:01:09.141Z,46.77
2022-09-23T13:05:01.404Z,47.28
2022-09-23T13:08:16.208Z,46.49
2022-09-23T13:11:29.989Z,46.93
2022-09-23T13:14:45.469Z,48.04
2022-09-23T13:17:54.133Z,47.46
2022-09-23T13:21:08.446Z,46.74
2022-09-23T13:24:36.415Z,46.61
2022-09-23T13:27:50.950Z,44.84
2022-09-23T13:31:06.919Z,45.26
2022-09-23T13:34:21.885Z,46.32
2022-09-23T13:37:42.551Z,45.92
2022-09-23T13:40:51.535Z,45.04
2022-09-23T13:44:01.178Z,44.13
2022-09-23T13:47:16.698Z,44.27
2022-09-23T13:50:28.053Z,44.43
2022-09-23T13:53:39.820Z,43.97
2022-09-23T13:56:50.808Z,44.70
2022-09-23T14:00:03.582Z,45.93
2022-09-23T14:03:36.643Z,46.44
2022-09-23T14:06:46.848Z,45.58
2022-09-23T14:09:57.719Z,45.44
2022-09-23T14:13:06.239Z,46.59
2022-09-23T14:16:17.134Z,47.12
2022-09-23T14:19:27.901Z,45.22
2022-09-23T14:22:36.308Z,46.25
2022-09-23T14:25:46.542Z,46.12
2022-09-23T14:28:55.959Z,45.00
2022-09-23T14:32:13.137Z,45.33
2022-09-23T14:35:28.324Z,45.74
2022-09-23T14:38:51.402Z,45.04
2022-09-23T14:42:00.080Z,45.42
2022-09-23T14:45:16.297Z,46.24
2022-09-23T14:48:28.573Z,45.92
2022-09-23T14:51:49.009Z,45.46
2022-09-23T14:54:58.401Z,44.75
2022-09-23T14:58:17.945Z,43.53
2022-09-23T15:01:38.562Z,45.90
2022-09-23T15:04:47.245Z,44.60
2022-09-23T15:08:02.374Z,45.57
2022-09-23T15:11:10.879Z,45.67
2022-09-23T15:14:37.255Z,45.83
2022-09-23T15:17:48.240Z,44.07
2022-09-23T15:21:02.479Z,43.73
2022-09-23T15:24:42.261Z,44.22
2022-09-23T15:28:04.252Z,44.66
2022-09-23T15:31:13.257Z,44.43
2022-09-23T15:34:21.742Z,45.24
2022-09-23T15:37:35.507Z,45.72
2022-09-23T15:40:46.138Z,45.06
2022-09-23T15:43:56.631Z,44.68
2022-09-23T15:47:05.601Z,44.87
2022-09-23T15:50:14.690Z,45.88
2022-09-23T15:53:27.716Z,46.74
2022-09-23T15:56:38.054Z,46.45
2022-09-23T15:59:46.389Z,47.56
2022-09-23T16:02:55.244Z,47.55
2022-09-23T16:06:04.113Z,48.06
2022-09-23T16:09:13.764Z,48.49
2022-09-23T16:12:23.619Z,49.00
2022-09-23T16:15:33.652Z,49.34
2022-09-23T16:18:43.872Z,49.78
2022-09-23T16:21:52.412Z,50.42
2022-09-23T16:25:00.590Z,50.49
2022-09-23T16:28:12.056Z,51.41
2022-09-23T16:31:21.481Z,52.55
2022-09-23T16:34:29.943Z,54.26
2022-09-23T16:37:38.500Z,55.23
2022-09-23T16:40:47.464Z,56.20
2022-09-23T16:43:57.680Z,56.07
2022-09-23T16:47:06.016Z,57.39
2022-09-23T16:50:17.166Z,57.60
2022-09-23T16:53:26.401Z,58.40
2022-09-23T16:56:35.316Z,59.66
2022-09-23T17:00:02.648Z,60.09
2022-09-23T17:03:31.012Z,61.39
2022-09-23T17:06:44.749Z,63.13
2022-09-23T17:09:53.178Z,63.27
2022-09-23T17:13:01.649Z,63.63
2022-09-23T17:16:22.744Z,65.07
2022-09-23T17:19:30.992Z,65.69
2022-09-23T17:22:39.351Z,66.49
2022-09-23T17:25:49.439Z,67.74
2022-09-23T17:28:59.389Z,68.60
2022-09-23T17:32:09.487Z,69.19
2022-09-23T17:35:17.948Z,69.52
2022-09-23T17:38:29.459Z,69.87
2022-09-23T17:41:39.071Z,70.20
2022-09-23T17:44:48.246Z,70.33
2022-09-23T17:47:57.701Z,70.87
2022-09-23T17:51:11.521Z,70.83
2022-09-23T17:54:20.329Z,70.54
2022-09-23T17:57:28.739Z,71.52
2022-09-23T18:00:36.969Z,72.29
2022-09-23T18:03:47.470Z,72.14
2022-09-23T18:06:55.651Z,72.91
2022-09-23T18:10:04.376Z,73.96
2022-09-23T18:13:13.291Z,73.64
2022-09-23T18:16:26.343Z,74.28
2022-09-23T18:19:36.387Z,74.02
2022-09-23T18:22:44.986Z,74.57
2022-09-23T18:25:53.780Z,74.21
2022-09-23T18:29:03.520Z,74.71
2022-09-23T18:32:14.168Z,74.83
2022-09-23T18:35:24.264Z,75.66
2022-09-23T18:38:32.647Z,75.22
2022-09-23T18:41:41.096Z,75.33
2022-09-23T18:44:54.149Z,75.47
2022-09-23T18:48:20.182Z,76.35
2022-09-23T18:51:32.350Z,76.80
2022-09-23T18:54:40.412Z,77.01
2022-09-23T18:57:49.026Z,76.47
2022-09-23T19:00:57.410Z,76.97
2022-09-23T19:04:06.802Z,77.32
2022-09-23T19:07:17.027Z,78.10
2022-09-23T19:10:25.489Z,78.74
2022-09-23T19:13:35.859Z,76.85
2022-09-23T19:16:44.066Z,77.03
2022-09-23T19:19:52.438Z,77.91
2022-09-23T19:23:01.995Z,78.42
2022-09-23T19:26:13.358Z,79.81
2022-09-23T19:29:22.189Z,79.47
2022-09-23T19:32:33.351Z,80.43
2022-09-23T19:35:48.529Z,80.74
2022-09-23T19:39:04.340Z,79.81
2022-09-23T19:42:12.673Z,79.63
2022-09-23T19:45:21.228Z,80.25
2022-09-23T19:48:29.561Z,79.90
2022-09-23T19:51:37.885Z,79.68
2022-09-23T19:54:48.605Z,80.22
2022-09-23T19:57:56.751Z,80.20
2022-09-23T20:01:08.440Z,79.38
2022-09-23T20:04:16.905Z,79.65
2022-09-23T20:07:25.406Z,79.67
2022-09-23T20:10:35.345Z,80.33
2022-09-23T20:13:47.138Z,80.26
2022-09-23T20:16:56.595Z,80.61
2022-09-23T20:20:06.990Z,81.29
2022-09-23T20:23:15.156Z,80.64
2022-09-23T20:26:42.289Z,81.43
2022-09-23T20:29:51.138Z,81.30
2022-09-23T20:33:00.923Z,81.00
2022-09-23T20:36:09.660Z,81.21
2022-09-23T20:39:18.030Z,81.49
2022-09-23T20:42:28.425Z,81.65
2022-09-23T20:45:36.613Z,81.36
2022-09-23T20:48:47.457Z,81.37
2022-09-23T20:51:55.861Z,81.26
2022-09-23T20:55:04.389Z,81.53
2022-09-23T20:58:13.799Z,81.53
2022-09-23T21:01:23.185Z,81.52
2022-09-23T21:04:32.864Z,81.55
2022-09-23T21:07:41.190Z,81.42
2022-09-23T21:10:55.612Z,81.05
2022-09-23T21:14:05.553Z,81.21
2022-09-23T21:17:14.275Z,80.93
2022-09-23T21:20:22.477Z,80.99
2022-09-23T21:23:33.367Z,80.96
2022-09-23T21:26:41.554Z,80.87
2022-09-23T21:29:51.449Z,81.14
2022-09-23T21:33:01.824Z,80.77
2022-09-23T21:36:11.228Z,80.99
2022-09-23T21:39:19.756Z,81.03
2022-09-23T21:42:28.486Z,80.86
2022-09-23T21:45:38.666Z,80.88
2022-09-23T21:48:49.870Z,80.94
2022-09-23T21:52:00.931Z,80.80
2022-09-23T21:55:09.639Z,80.76
2022-09-23T21:58:17.803Z,80.14
2022-09-23T22:01:30.347Z,80.12
2022-09-23T22:04:38.589Z,79.97
2022-09-23T22:07:46.817Z,79.67
2022-09-23T22:10:56.066Z,80.28
2022-09-23T22:14:08.402Z,79.79
2022-09-23T22:17:19.178Z,80.19
2022-09-23T22:20:28.118Z,80.78
2022-09-23T22:23:36.495Z,80.27
2022-09-23T22:26:46.083Z,80.13
2022-09-23T22:30:11.674Z,80.61
2022-09-23T22:33:22.009Z,80.27
2022-09-23T22:36:30.347Z,80.79
2022-09-23T22:39:38.905Z,80.82
2022-09-23T22:42:48.469Z,79.94
2022-09-23T22:45:57.059Z,80.48
2022-09-23T22:49:07.427Z,80.56
2022-09-23T22:52:21.172Z,81.08
2022-09-23T22:55:31.106Z,80.22
2022-09-23T22:58:39.579Z,80.72
2022-09-23T23:01:48.307Z,79.68
2022-09-23T23:05:00.391Z,79.51
2022-09-23T23:08:08.537Z,79.82
2022-09-23T23:11:16.670Z,80.85
2022-09-23T23:14:28.203Z,80.41
2022-09-23T23:17:36.468Z,80.53
2022-09-23T23:20:46.111Z,80.37
2022-09-23T23:23:55.238Z,79.85
2022-09-23T23:27:03.371Z,79.74
2022-09-23T23:30:13.162Z,80.11
2022-09-23T23:33:21.420Z,79.99
2022-09-23T23:36:31.502Z,80.17
2022-09-23T23:39:39.671Z,80.06
2022-09-23T23:42:48.135Z,79.79
2022-09-23T23:45:56.335Z,80.23
2022-09-23T23:49:06.818Z,80.11
2022-09-23T23:52:16.252Z,79.38
2022-09-23T23:55:25.775Z,80.04
2022-09-23T23:58:34.656Z,80.19
